Αρχική σελίδα
METAR-TAF:

METAR-TAF

Αεροδρόμια :

Great Bend Municipal Airport

Great Bend, Κάνσας, Ηνωμένες Πολιτείες Αμερικής

γεωγραφικό πλάτος: 38-21N, γεωγραφικό μήκος: 098-52W, υψόμετρο: 575 μ

Παρών καιρός

Η αναφορά έγινε 31 λεπτά πριν, στις 07:56 UTC
Άνεμος 11 kt από BA
Θερμοκρασία 23°C
Υγρασία 89%
Πίεση 1012 hPa
Ορατότητα: 16.1 χλμ
Καθαρός ουρανός

METAR: KGBD 200756Z AUTO 05011KT 10SM CLR 23/21 A2987 RMK AO2 SLP091 T02330206

Χρόνος: 03:27 (08:27 UTC)

Πρόγνωση Καιρού

Η αναφορά έγινε 3 ώρες και 5 λεπτά πριν, στις 05:22 UTC
Η πρόγνωση ισχύει από τις 20 στις 06 UTC έως τις 21 στις 06 UTC
Άνεμος 7 kt από Α
Ορατότητα: 10 χλμ
Διάσπαρτα νέφη σε ύψος 10000 πόδια
Από 20 στις 1200 UTC
Άνεμος 10 kt από Α
Ορατότητα: 10 χλμ
Λίγα νέφη σε ύψος 10000 πόδια

TAF: KGBD 200522Z 2006/2106 09007KT P6SM SCT100 FM201200 09010KT P6SM FEW100 AMD LTD TO CLD VIS AND WIND

Μετεωρολογικές αναφορές και προγνώσεις για περισσότερα από 4000 αεροδρόμια (δελτία METAR και TAF).

Οι διαθέσιμοι σταθμοί απεικονίζονται στο χάρτη με κίτρινες και κόκκινες κουκκίδες.

Μετακινήστε το ποντίκι πάνω από τις κουκκίδες για να δείτε το όνομα του σταθμού.

Στη συνέχεια, κάντε κλικ για να δείτε τις μετεωρολογικές αναφορές και τις προγνώσεις καιρού.

Για να αλλάξετε το χάρτη: κάντε κλικ στα πράσινα κουμπιά με τον μαύρο σταυρό για να ζουμάρετε, στο πράσινο κουμπί με την παύλα για να αφαιρέσετε το ζουμ ή στα πράσινα βέλη για να αντιπαραβάλλετε χάρτες.


METAR-TAF: